CYQG

Windsor Airport

Windsor, , Canada
METAR CYQG 151300Z 21007KT 10SM BKN038 OVC110 M06/M10 A2991 RMK CU7AC1 SLP143
Observed Flight Rules
Dec-15 @ 13:00 UTC (47 minutes ago) Visual Flight Rules
Wind Visibility Clouds
210° at 7 knots 10 miles
  • Broken at 3,800' AGL
  • Overcast at 11,000' AGL
Temperatures Readings
Current -6°C / 21°F
Dewpoint -10°C / 14°F
Humidity 74%
Altimeter 29.91" Hg
Pressure 1014.3 hPa
Elevation 190
METAR CYQG 151300Z 21007KT 10SM BKN038 OVC110 M06/M10 A2991 RMK CU7AC1 SLP143
Observed Flight Rules
Dec-15 @ 13:00 UTC
(47 minutes ago)
VFR
Wind Visibility
210° at 7 knots 10 miles
Clouds
  • Broken at 3,800' AGL
  • Overcast at 11,000' AGL
Temperature Dewpoint
-6°C / 21°F -10°C / 14°F
Humidity Altimeter Pressure
74% 29.91" Hg 1014.3 hPa